Time,TemperatureF,DewpointF,PressureIn,WindDirection,WindDirectionDegrees,WindSpeedMPH,WindSpeedGustMPH,Humidity,HourlyPrecipIn,Conditions,Clouds,dailyrainin,SolarRadiationWatts/m^2,SoftwareType,DateUTC
2013-02-13 00:21:00,49.0,32.0,-100.00,ESE,109,4.0,9.0,51,0.00,,,0.00,0.000000,,2013-02-13 10:21:00,
2013-02-13 00:31:00,49.0,32.0,-100.00,ESE,109,4.0,9.0,51,0.00,,,0.00,0.000000,,2013-02-13 10:31:00,
2013-02-13 00:41:00,49.0,32.0,-100.00,ESE,109,4.0,9.0,51,0.00,,,0.00,0.000000,,2013-02-13 10:41:00,
2013-02-13 00:51:00,49.0,32.0,-100.00,ESE,109,4.0,9.0,51,0.00,,,0.00,0.000000,,2013-02-13 10:51:00,
2013-02-13 01:22:00,46.0,29.0,-100.00,SSE,150,5.0,7.0,52,0.00,,,0.00,0.000000,,2013-02-13 11:22:00,
2013-02-13 01:32:00,46.0,29.0,-100.00,SSE,150,5.0,7.0,52,0.00,,,0.00,0.000000,,2013-02-13 11:32:00,
2013-02-13 01:42:00,46.0,29.0,-100.00,SSE,150,5.0,7.0,52,0.00,,,0.00,0.000000,,2013-02-13 11:42:00,
2013-02-13 01:52:00,46.0,29.0,-100.00,SSE,150,5.0,7.0,52,0.00,,,0.00,0.000000,,2013-02-13 11:52:00,
2013-02-13 02:21:00,43.0,24.0,-100.00,SSE,157,4.0,8.0,46,0.00,,,0.00,0.000000,,2013-02-13 12:21:00,
2013-02-13 02:32:00,43.0,24.0,-100.00,SSE,157,4.0,8.0,46,0.00,,,0.00,0.000000,,2013-02-13 12:32:00,
2013-02-13 02:42:00,43.0,24.0,-100.00,SSE,157,4.0,8.0,46,0.00,,,0.00,0.000000,,2013-02-13 12:42:00,
2013-02-13 02:52:00,43.0,24.0,-100.00,SSE,157,4.0,8.0,46,0.00,,,0.00,0.000000,,2013-02-13 12:52:00,
2013-02-13 03:21:00,43.0,23.0,-100.00,SE,142,4.0,8.0,45,0.00,,,0.00,0.000000,,2013-02-13 13:21:00,
2013-02-13 03:31:00,43.0,23.0,-100.00,SE,142,4.0,8.0,45,0.00,,,0.00,0.000000,,2013-02-13 13:31:00,
2013-02-13 03:41:00,43.0,23.0,-100.00,SE,142,4.0,8.0,45,0.00,,,0.00,0.000000,,2013-02-13 13:41:00,
2013-02-13 03:51:00,43.0,23.0,-100.00,SE,142,4.0,8.0,45,0.00,,,0.00,0.000000,,2013-02-13 13:51:00,
2013-02-13 04:21:00,44.0,24.0,-100.00,SSE,159,4.0,7.0,45,0.00,,,0.00,0.000000,,2013-02-13 14:21:00,
2013-02-13 04:31:00,44.0,24.0,-100.00,SSE,159,4.0,7.0,45,0.00,,,0.00,0.000000,,2013-02-13 14:31:00,
2013-02-13 04:41:00,44.0,24.0,-100.00,SSE,159,4.0,7.0,45,0.00,,,0.00,0.000000,,2013-02-13 14:41:00,
2013-02-13 04:52:00,44.0,24.0,-100.00,SSE,159,4.0,7.0,45,0.00,,,0.00,0.000000,,2013-02-13 14:52:00,
2013-02-13 05:21:00,42.0,23.0,-100.00,ESE,119,6.0,11.0,46,0.00,,,0.00,0.000000,,2013-02-13 15:21:00,
2013-02-13 05:32:00,42.0,23.0,-100.00,ESE,119,6.0,11.0,46,0.00,,,0.00,0.000000,,2013-02-13 15:32:00,
2013-02-13 05:42:00,42.0,23.0,-100.00,ESE,119,6.0,11.0,46,0.00,,,0.00,0.000000,,2013-02-13 15:42:00,
2013-02-13 05:51:00,42.0,23.0,-100.00,ESE,119,6.0,11.0,46,0.00,,,0.00,0.000000,,2013-02-13 15:51:00,
2013-02-13 06:11:00,41.0,20.0,-100.00,ESE,122,6.0,8.0,43,0.00,,,0.00,0.000000,,2013-02-13 16:11:00,
2013-02-13 06:21:00,41.0,20.0,-100.00,ESE,122,6.0,8.0,43,0.00,,,0.00,0.000000,,2013-02-13 16:21:00,
2013-02-13 06:31:00,41.0,20.0,-100.00,ESE,122,6.0,8.0,43,0.00,,,0.00,0.000000,,2013-02-13 16:31:00,
2013-02-13 06:41:00,41.0,20.0,-100.00,ESE,122,6.0,8.0,43,0.00,,,0.00,0.000000,,2013-02-13 16:41:00,
2013-02-13 06:51:00,41.0,20.0,-100.00,ESE,122,6.0,8.0,43,0.00,,,0.00,0.000000,,2013-02-13 16:51:00,
2013-02-13 07:21:00,42.0,18.0,-100.00,ESE,111,7.0,11.0,37,0.00,,,0.00,1.000000,,2013-02-13 17:21:00,
2013-02-13 07:31:00,42.0,18.0,-100.00,ESE,111,7.0,11.0,37,0.00,,,0.00,1.000000,,2013-02-13 17:31:00,
2013-02-13 07:41:00,42.0,18.0,-100.00,ESE,111,7.0,11.0,37,0.00,,,0.00,1.000000,,2013-02-13 17:41:00,
2013-02-13 07:52:00,42.0,18.0,-100.00,ESE,111,7.0,11.0,37,0.00,,,0.00,1.000000,,2013-02-13 17:52:00,
2013-02-13 08:22:00,51.0,15.0,-100.00,East,96,8.0,11.0,23,0.00,,,0.00,134.000000,,2013-02-13 18:22:00,
2013-02-13 08:32:00,51.0,15.0,-100.00,East,96,8.0,11.0,23,0.00,,,0.00,134.000000,,2013-02-13 18:32:00,
2013-02-13 08:41:00,51.0,15.0,-100.00,East,96,8.0,11.0,23,0.00,,,0.00,134.000000,,2013-02-13 18:41:00,
2013-02-13 08:51:00,51.0,15.0,-100.00,East,96,8.0,11.0,23,0.00,,,0.00,134.000000,,2013-02-13 18:51:00,
2013-02-13 09:21:00,58.0,6.0,-100.00,East,89,9.0,15.0,12,0.00,,,0.00,481.000000,,2013-02-13 19:21:00,
2013-02-13 09:31:00,58.0,6.0,-100.00,East,89,9.0,15.0,12,0.00,,,0.00,481.000000,,2013-02-13 19:31:00,
2013-02-13 09:41:00,58.0,6.0,-100.00,East,89,9.0,15.0,12,0.00,,,0.00,481.000000,,2013-02-13 19:41:00,
2013-02-13 09:51:00,58.0,6.0,-100.00,East,89,9.0,15.0,12,0.00,,,0.00,481.000000,,2013-02-13 19:51:00,
2013-02-13 10:21:00,66.0,8.0,-100.00,ENE,64,5.0,16.0,10,0.00,,,0.00,773.000000,,2013-02-13 20:21:00,
2013-02-13 10:31:00,66.0,8.0,-100.00,ENE,64,5.0,16.0,10,0.00,,,0.00,773.000000,,2013-02-13 20:31:00,
2013-02-13 10:41:00,66.0,8.0,-100.00,ENE,64,5.0,16.0,10,0.00,,,0.00,773.000000,,2013-02-13 20:41:00,
2013-02-13 10:52:00,66.0,8.0,-100.00,ENE,64,5.0,16.0,10,0.00,,,0.00,773.000000,,2013-02-13 20:52:00,
2013-02-13 11:21:00,64.0,24.0,-100.00,WNW,298,10.0,17.0,22,0.00,,,0.00,1001.000000,,2013-02-13 21:21:00,
2013-02-13 11:31:00,64.0,24.0,-100.00,WNW,298,10.0,17.0,22,0.00,,,0.00,1001.000000,,2013-02-13 21:31:00,
2013-02-13 11:42:00,64.0,24.0,-100.00,WNW,298,10.0,17.0,22,0.00,,,0.00,1001.000000,,2013-02-13 21:42:00,
2013-02-13 11:52:00,64.0,24.0,-100.00,WNW,298,10.0,17.0,22,0.00,,,0.00,1001.000000,,2013-02-13 21:52:00,
2013-02-13 12:21:00,65.0,32.0,-100.00,WNW,298,10.0,18.0,29,0.00,,,0.00,1147.000000,,2013-02-13 22:21:00,
2013-02-13 12:31:00,65.0,32.0,-100.00,WNW,298,10.0,18.0,29,0.00,,,0.00,1147.000000,,2013-02-13 22:31:00,
2013-02-13 12:42:00,65.0,32.0,-100.00,WNW,298,10.0,18.0,29,0.00,,,0.00,1147.000000,,2013-02-13 22:42:00,
2013-02-13 12:51:00,65.0,32.0,-100.00,WNW,298,10.0,18.0,29,0.00,,,0.00,1147.000000,,2013-02-13 22:51:00,
2013-02-13 13:21:00,60.0,37.0,-100.00,WNW,295,12.0,22.0,43,0.00,,,0.00,1191.000000,,2013-02-13 23:21:00,
2013-02-13 13:32:00,60.0,37.0,-100.00,WNW,295,12.0,22.0,43,0.00,,,0.00,1191.000000,,2013-02-13 23:32:00,
2013-02-13 13:41:00,60.0,37.0,-100.00,WNW,295,12.0,22.0,43,0.00,,,0.00,1191.000000,,2013-02-13 23:41:00,
2013-02-13 13:52:00,60.0,37.0,-100.00,WNW,295,12.0,22.0,43,0.00,,,0.00,1191.000000,,2013-02-13 23:52:00,
2013-02-13 14:21:00,63.0,44.0,-100.00,WNW,297,10.0,20.0,49,0.00,,,0.00,1154.000000,,2013-02-14 00:21:00,
2013-02-13 14:31:00,63.0,44.0,-100.00,WNW,297,10.0,20.0,49,0.00,,,0.00,1154.000000,,2013-02-14 00:31:00,
2013-02-13 14:42:00,63.0,44.0,-100.00,WNW,297,10.0,20.0,49,0.00,,,0.00,1154.000000,,2013-02-14 00:42:00,
2013-02-13 14:51:00,63.0,44.0,-100.00,WNW,297,10.0,20.0,49,0.00,,,0.00,1154.000000,,2013-02-14 00:51:00,
2013-02-13 15:21:00,64.0,41.0,-100.00,East,84,9.0,19.0,43,0.00,,,0.00,1049.000000,,2013-02-14 01:21:00,
2013-02-13 15:31:00,64.0,41.0,-100.00,East,84,9.0,19.0,43,0.00,,,0.00,1049.000000,,2013-02-14 01:31:00,
2013-02-13 15:41:00,64.0,41.0,-100.00,East,84,9.0,19.0,43,0.00,,,0.00,1049.000000,,2013-02-14 01:41:00,
2013-02-13 15:51:00,64.0,41.0,-100.00,East,84,9.0,19.0,43,0.00,,,0.00,1049.000000,,2013-02-14 01:51:00,
2013-02-13 16:21:00,63.0,40.0,-100.00,East,94,11.0,21.0,42,0.00,,,0.00,821.000000,,2013-02-14 02:21:00,
2013-02-13 16:31:00,63.0,40.0,-100.00,East,94,11.0,21.0,42,0.00,,,0.00,821.000000,,2013-02-14 02:31:00,
2013-02-13 16:41:00,63.0,40.0,-100.00,East,94,11.0,21.0,42,0.00,,,0.00,821.000000,,2013-02-14 02:41:00,
2013-02-13 16:51:00,63.0,40.0,-100.00,East,94,11.0,21.0,42,0.00,,,0.00,821.000000,,2013-02-14 02:51:00,
2013-02-13 17:21:00,63.0,41.0,-100.00,ESE,107,6.0,18.0,44,0.00,,,0.00,456.000000,,2013-02-14 03:21:00,
2013-02-13 17:31:00,63.0,41.0,-100.00,ESE,107,6.0,18.0,44,0.00,,,0.00,456.000000,,2013-02-14 03:31:00,
2013-02-13 17:42:00,63.0,41.0,-100.00,ESE,107,6.0,18.0,44,0.00,,,0.00,456.000000,,2013-02-14 03:42:00,
2013-02-13 17:51:00,63.0,41.0,-100.00,ESE,107,6.0,18.0,44,0.00,,,0.00,456.000000,,2013-02-14 03:51:00,
2013-02-13 18:11:00,58.0,47.0,-100.00,NW,325,4.0,13.0,68,0.00,,,0.00,232.000000,,2013-02-14 04:11:00,
2013-02-13 18:21:00,58.0,47.0,-100.00,NW,325,4.0,13.0,68,0.00,,,0.00,232.000000,,2013-02-14 04:21:00,
2013-02-13 18:31:00,58.0,47.0,-100.00,NW,325,4.0,13.0,68,0.00,,,0.00,232.000000,,2013-02-14 04:31:00,
2013-02-13 18:41:00,58.0,47.0,-100.00,NW,325,4.0,13.0,68,0.00,,,0.00,232.000000,,2013-02-14 04:41:00,
2013-02-13 18:51:00,58.0,47.0,-100.00,NW,325,4.0,13.0,68,0.00,,,0.00,232.000000,,2013-02-14 04:51:00,
2013-02-13 19:21:00,53.0,37.0,-100.00,East,80,8.0,15.0,54,0.00,,,0.00,11.000000,,2013-02-14 05:21:00,
2013-02-13 19:31:00,53.0,37.0,-100.00,East,80,8.0,15.0,54,0.00,,,0.00,11.000000,,2013-02-14 05:31:00,
2013-02-13 19:41:00,53.0,37.0,-100.00,East,80,8.0,15.0,54,0.00,,,0.00,11.000000,,2013-02-14 05:41:00,
2013-02-13 19:52:00,53.0,37.0,-100.00,East,80,8.0,15.0,54,0.00,,,0.00,11.000000,,2013-02-14 05:52:00,
2013-02-13 20:11:00,46.0,44.0,-100.00,WNW,291,2.0,12.0,93,0.00,,,0.00,0.000000,,2013-02-14 06:11:00,
2013-02-13 20:21:00,46.0,44.0,-100.00,WNW,291,2.0,12.0,93,0.00,,,0.00,0.000000,,2013-02-14 06:21:00,
2013-02-13 20:31:00,46.0,44.0,-100.00,WNW,291,2.0,12.0,93,0.00,,,0.00,0.000000,,2013-02-14 06:31:00,
2013-02-13 20:41:00,46.0,44.0,-100.00,WNW,291,2.0,12.0,93,0.00,,,0.00,0.000000,,2013-02-14 06:41:00,
2013-02-13 20:51:00,46.0,44.0,-100.00,WNW,291,2.0,12.0,93,0.00,,,0.00,0.000000,,2013-02-14 06:51:00,
2013-02-13 21:21:00,49.0,28.0,-100.00,ESE,105,10.0,15.0,44,0.00,,,0.00,0.000000,,2013-02-14 07:21:00,
2013-02-13 21:31:00,49.0,28.0,-100.00,ESE,105,10.0,15.0,44,0.00,,,0.00,0.000000,,2013-02-14 07:31:00,
2013-02-13 21:41:00,49.0,28.0,-100.00,ESE,105,10.0,15.0,44,0.00,,,0.00,0.000000,,2013-02-14 07:41:00,
2013-02-13 21:51:00,49.0,28.0,-100.00,ESE,105,10.0,15.0,44,0.00,,,0.00,0.000000,,2013-02-14 07:51:00,
2013-02-13 22:21:00,50.0,21.0,-100.00,ESE,115,11.0,16.0,32,0.00,,,0.00,0.000000,,2013-02-14 08:21:00,
2013-02-13 22:31:00,50.0,21.0,-100.00,ESE,115,11.0,16.0,32,0.00,,,0.00,0.000000,,2013-02-14 08:31:00,
2013-02-13 22:43:00,50.0,21.0,-100.00,ESE,115,11.0,16.0,32,0.00,,,0.00,0.000000,,2013-02-14 08:43:00,
2013-02-13 22:52:00,50.0,21.0,-100.00,ESE,115,11.0,16.0,32,0.00,,,0.00,0.000000,,2013-02-14 08:52:00,
2013-02-13 23:21:00,44.0,37.0,-100.00,NNW,346,3.0,14.0,77,0.00,,,0.00,0.000000,,2013-02-14 09:21:00,
2013-02-13 23:31:00,44.0,37.0,-100.00,NNW,346,3.0,14.0,77,0.00,,,0.00,0.000000,,2013-02-14 09:31:00,
2013-02-13 23:41:00,44.0,37.0,-100.00,NNW,346,3.0,14.0,77,0.00,,,0.00,0.000000,,2013-02-14 09:41:00,
2013-02-13 23:51:00,44.0,37.0,-100.00,NNW,346,3.0,14.0,77,0.00,,,0.00,0.000000,,2013-02-14 09:51:00,